Time;durP1;ratioP1;P1;durP2;ratioP2;P2;SDS_P1;SDS_P2;PMS_P1;PMS_P2;Temp;Humidity;BMP_temperature;BMP_pressure;BME280_temperature;BME280_humidity;BME280_pressure;Samples;Min_cycle;Max_cycle;Signal;HPM_P1;HPM_P2
2021/05/05 00:00:29;;;;;;;20.92;4.05;;;15.50;69.90;;;;;;5093918;28;20028;-68
2021/05/05 00:02:55;;;;;;;10.57;3.97;;;15.50;69.90;;;;;;5094131;28;20028;-69
2021/05/05 00:05:21;;;;;;;16.98;4.53;;;15.40;69.70;;;;;;5093730;28;20460;-68
2021/05/05 00:07:47;;;;;;;14.90;3.67;;;15.40;69.80;;;;;;5093419;28;20126;-68
2021/05/05 00:10:14;;;;;;;9.80;3.75;;;15.30;70.00;;;;;;5094203;28;20035;-68
2021/05/05 00:12:41;;;;;;;17.35;3.53;;;15.30;69.90;;;;;;5093961;28;20032;-68
2021/05/05 00:15:14;;;;;;;13.55;4.10;;;15.30;69.80;;;;;;5092264;28;20392;-68
2021/05/05 00:17:40;;;;;;;9.07;3.40;;;15.30;70.00;;;;;;5093730;28;20044;-68
2021/05/05 00:20:07;;;;;;;11.60;3.20;;;15.20;69.70;;;;;;5094081;28;20033;-68
2021/05/05 00:22:33;;;;;;;10.73;3.38;;;15.20;69.40;;;;;;5093322;28;20107;-68
2021/05/05 00:24:59;;;;;;;8.88;3.40;;;15.20;69.20;;;;;;5091809;28;20555;-68
2021/05/05 00:27:25;;;;;;;11.38;3.55;;;15.20;69.10;;;;;;5093274;28;20036;-68
2021/05/05 00:29:51;;;;;;;8.13;3.42;;;15.10;69.00;;;;;;5093307;28;20031;-68
2021/05/05 00:32:17;;;;;;;8.15;3.72;;;15.10;68.90;;;;;;5093382;28;20028;-69
2021/05/05 00:34:42;;;;;;;9.27;3.80;;;15.10;68.90;;;;;;5093524;28;20074;-69
2021/05/05 00:37:08;;;;;;;11.02;3.22;;;15.10;68.90;;;;;;5093349;28;20028;-68
2021/05/05 00:39:34;;;;;;;10.75;3.50;;;15.00;69.00;;;;;;5093466;28;20050;-68
2021/05/05 00:42:00;;;;;;;7.85;3.60;;;15.00;68.90;;;;;;5093461;28;20032;-69
2021/05/05 00:44:26;;;;;;;7.85;3.05;;;15.00;68.80;;;;;;5092771;28;20039;-68
2021/05/05 00:46:51;;;;;;;10.07;3.28;;;15.00;68.90;;;;;;5091226;28;20520;-68
2021/05/05 00:49:17;;;;;;;9.13;3.65;;;15.00;68.80;;;;;;5093149;28;20032;-68
2021/05/05 00:51:43;;;;;;;6.95;3.15;;;15.00;68.70;;;;;;5093310;28;20024;-69
2021/05/05 00:54:09;;;;;;;11.48;4.07;;;15.00;68.70;;;;;;5093292;28;20109;-68
2021/05/05 00:56:35;;;;;;;7.50;2.97;;;14.90;68.70;;;;;;5093304;28;20023;-68
2021/05/05 00:59:01;;;;;;;13.00;3.47;;;14.90;68.70;;;;;;5090872;28;20395;-68
2021/05/05 01:01:26;;;;;;;10.95;3.40;;;14.90;68.40;;;;;;5090439;28;20119;-69
2021/05/05 01:03:52;;;;;;;8.80;3.13;;;14.90;68.20;;;;;;5090349;28;20446;-68
2021/05/05 01:06:18;;;;;;;7.53;3.22;;;14.80;68.10;;;;;;5092628;28;20052;-68
2021/05/05 01:08:47;;;;;;;9.18;3.17;;;14.80;68.10;;;;;;5092568;28;20035;-68
2021/05/05 01:11:13;;;;;;;7.68;3.10;;;14.80;68.20;;;;;;5092830;28;20387;-68
2021/05/05 01:13:40;;;;;;;10.73;3.75;;;14.80;68.10;;;;;;5092853;28;20028;-68
2021/05/05 01:16:06;;;;;;;7.57;3.58;;;14.80;68.20;;;;;;5092897;28;20028;-68
2021/05/05 01:18:32;;;;;;;15.75;4.07;;;14.70;68.20;;;;;;5093212;28;20027;-68
2021/05/05 01:21:00;;;;;;;8.43;3.60;;;14.70;68.30;;;;;;5092675;28;20032;-68
2021/05/05 01:23:26;;;;;;;8.73;3.20;;;14.70;68.30;;;;;;5093197;28;20058;-68
2021/05/05 01:25:52;;;;;;;8.38;3.40;;;14.60;68.40;;;;;;5093216;28;20077;-68
2021/05/05 01:28:19;;;;;;;10.32;4.03;;;14.60;68.40;;;;;;5092834;28;20112;-68
2021/05/05 01:30:46;;;;;;;11.30;3.10;;;14.60;68.70;;;;;;5093208;28;20020;-68
2021/05/05 01:33:14;;;;;;;7.63;3.00;;;14.60;68.70;;;;;;5092987;28;20107;-68
2021/05/05 01:35:40;;;;;;;9.80;3.25;;;14.50;68.60;;;;;;5092358;28;20373;-68
2021/05/05 01:38:06;;;;;;;7.78;2.78;;;14.50;68.60;;;;;;5092601;28;20032;-68
2021/05/05 01:40:34;;;;;;;7.13;2.85;;;14.50;68.60;;;;;;5092521;28;20107;-70
2021/05/05 01:43:02;;;;;;;13.98;3.92;;;14.50;68.70;;;;;;5092624;28;20032;-68
2021/05/05 01:45:28;;;;;;;9.30;3.25;;;14.50;68.70;;;;;;5092651;28;20047;-68
2021/05/05 01:48:03;;;;;;;7.35;2.70;;;14.50;68.70;;;;;;5092622;28;20484;-68
2021/05/05 01:50:29;;;;;;;7.25;2.97;;;14.40;68.60;;;;;;5092340;28;20402;-68
2021/05/05 01:52:55;;;;;;;8.93;2.92;;;14.40;68.70;;;;;;5092476;28;20035;-68
2021/05/05 01:55:21;;;;;;;10.85;3.25;;;14.40;68.70;;;;;;5092701;28;20043;-68
2021/05/05 01:57:47;;;;;;;9.57;3.20;;;14.40;68.70;;;;;;5092005;28;20032;-68
2021/05/05 02:00:16;;;;;;;7.32;2.55;;;14.30;68.80;;;;;;5092559;28;20036;-68
2021/05/05 02:02:42;;;;;;;5.28;2.58;;;14.30;69.10;;;;;;5092910;28;20028;-68
2021/05/05 02:05:09;;;;;;;8.82;2.88;;;14.30;69.40;;;;;;5092829;28;20034;-68
2021/05/05 02:07:35;;;;;;;8.40;2.75;;;14.30;69.50;;;;;;5092075;28;20504;-68
2021/05/05 02:10:01;;;;;;;12.48;2.80;;;14.30;69.50;;;;;;5092139;28;20020;-68
2021/05/05 02:12:29;;;;;;;6.47;2.92;;;14.20;69.70;;;;;;5092099;28;20103;-69
2021/05/05 02:14:55;;;;;;;7.78;2.95;;;14.30;69.70;;;;;;5094259;28;20024;-68
2021/05/05 02:17:20;;;;;;;9.13;2.92;;;14.20;69.60;;;;;;5096045;28;20031;-68
2021/05/05 02:19:46;;;;;;;10.35;3.50;;;14.20;69.60;;;;;;5096024;28;20452;-69
2021/05/05 02:22:12;;;;;;;9.75;3.10;;;14.20;69.70;;;;;;5096111;28;20028;-68
2021/05/05 02:24:38;;;;;;;12.45;3.53;;;14.20;69.60;;;;;;5096117;28;20032;-68
2021/05/05 02:27:05;;;;;;;9.15;3.35;;;14.20;69.80;;;;;;5096039;28;20101;-68
2021/05/05 02:29:31;;;;;;;5.18;2.70;;;14.20;69.80;;;;;;5095585;28;20031;-68
2021/05/05 02:31:57;;;;;;;7.07;2.78;;;14.20;69.80;;;;;;5095668;28;20464;-68
2021/05/05 02:34:23;;;;;;;8.32;2.92;;;14.20;69.90;;;;;;5095705;28;20527;-68
2021/05/05 02:36:50;;;;;;;9.32;2.80;;;14.20;69.90;;;;;;5095590;28;20024;-68
2021/05/05 02:39:17;;;;;;;9.15;2.40;;;14.20;70.00;;;;;;5095492;28;20048;-68
2021/05/05 02:41:43;;;;;;;9.63;3.00;;;14.20;70.00;;;;;;5095344;28;20373;-68
2021/05/05 02:44:09;;;;;;;8.75;3.17;;;14.10;69.90;;;;;;5095775;28;20028;-68
2021/05/05 02:46:35;;;;;;;13.93;3.40;;;14.10;70.00;;;;;;5095289;28;20032;-68
2021/05/05 02:49:01;;;;;;;8.65;2.90;;;14.10;70.20;;;;;;5095409;28;20035;-68
2021/05/05 02:51:26;;;;;;;10.70;2.95;;;14.10;70.10;;;;;;5095240;28;20487;-68
2021/05/05 02:53:52;;;;;;;8.75;3.03;;;14.10;70.40;;;;;;5095077;28;20064;-68
2021/05/05 02:56:18;;;;;;;9.65;2.85;;;14.10;70.40;;;;;;5095335;28;20020;-68
2021/05/05 02:58:44;;;;;;;11.15;3.00;;;14.10;70.30;;;;;;5094962;28;20095;-68
2021/05/05 03:01:09;;;;;;;10.43;3.00;;;14.10;70.20;;;;;;5095187;28;20028;-68
2021/05/05 03:03:35;;;;;;;5.03;2.72;;;14.00;70.30;;;;;;5095212;28;20377;-68
2021/05/05 03:06:01;;;;;;;14.05;3.15;;;14.00;70.40;;;;;;5095482;28;20028;-68
2021/05/05 03:08:26;;;;;;;38.08;4.25;;;14.00;70.50;;;;;;5094600;28;20097;-68
2021/05/05 03:10:52;;;;;;;30.77;3.85;;;14.00;70.60;;;;;;5094938;28;20103;-68
2021/05/05 03:13:18;;;;;;;16.73;3.20;;;14.00;70.70;;;;;;5094563;28;20023;-68
2021/05/05 03:15:44;;;;;;;14.63;3.03;;;14.00;70.70;;;;;;5094770;28;20024;-68
2021/05/05 03:18:10;;;;;;;7.65;2.80;;;13.90;70.60;;;;;;5094926;28;20035;-68
2021/05/05 03:20:35;;;;;;;16.48;3.38;;;13.90;70.70;;;;;;5094884;28;20376;-68
2021/05/05 03:23:01;;;;;;;7.00;2.63;;;13.90;70.80;;;;;;5094827;28;20021;-68
2021/05/05 03:25:27;;;;;;;11.00;2.83;;;13.90;70.80;;;;;;5094890;28;20028;-68
2021/05/05 03:27:53;;;;;;;8.20;2.90;;;13.90;70.90;;;;;;5094522;28;20523;-68
2021/05/05 03:30:20;;;;;;;12.23;2.67;;;13.80;70.90;;;;;;5094669;28;20153;-68
2021/05/05 03:32:46;;;;;;;9.45;3.20;;;13.80;70.90;;;;;;5094349;28;20089;-68
2021/05/05 03:35:12;;;;;;;16.85;4.00;;;13.90;70.90;;;;;;5094258;28;20511;-68
2021/05/05 03:37:38;;;;;;;12.20;2.63;;;13.80;70.90;;;;;;5094514;28;20028;-68
2021/05/05 03:40:05;;;;;;;7.55;2.58;;;13.80;71.00;;;;;;5094291;28;20026;-68
2021/05/05 03:42:31;;;;;;;7.05;3.00;;;13.80;71.10;;;;;;5094608;28;20031;-68
2021/05/05 03:44:58;;;;;;;9.27;2.88;;;13.80;71.20;;;;;;5094257;28;20028;-68
2021/05/05 03:47:24;;;;;;;8.55;3.15;;;13.80;71.30;;;;;;5094347;28;20042;-68
2021/05/05 03:49:50;;;;;;;9.43;3.30;;;13.80;71.30;;;;;;5094297;28;20103;-68
2021/05/05 03:52:16;;;;;;;8.38;2.95;;;13.80;71.30;;;;;;5094200;28;20472;-68
2021/05/05 03:54:42;;;;;;;11.20;3.22;;;13.80;71.40;;;;;;5094151;28;20020;-68
2021/05/05 03:57:07;;;;;;;8.75;2.85;;;13.70;71.30;;;;;;5094076;28;20016;-68
2021/05/05 03:59:33;;;;;;;5.85;2.63;;;13.70;72.10;;;;;;5094123;28;20122;-68
2021/05/05 04:01:59;;;;;;;11.75;2.85;;;13.70;71.40;;;;;;5094232;28;20046;-69
2021/05/05 04:04:25;;;;;;;7.90;2.67;;;13.70;71.30;;;;;;5093841;28;20055;-68
2021/05/05 04:06:50;;;;;;;9.45;2.92;;;13.70;71.30;;;;;;5093722;28;20052;-68
2021/05/05 04:09:16;;;;;;;7.95;2.80;;;13.70;71.30;;;;;;5093799;28;20043;-69
2021/05/05 04:11:42;;;;;;;7.95;2.70;;;13.70;71.50;;;;;;5093783;28;20073;-68
2021/05/05 04:14:08;;;;;;;7.55;2.40;;;13.80;71.50;;;;;;5093527;28;20532;-68
2021/05/05 04:16:35;;;;;;;9.52;2.42;;;13.70;71.30;;;;;;5093631;28;20032;-69
2021/05/05 04:19:00;;;;;;;13.27;2.90;;;13.70;71.50;;;;;;5093612;28;20049;-68
2021/05/05 04:21:27;;;;;;;10.90;3.00;;;13.80;71.40;;;;;;5093792;28;20427;-68
2021/05/05 04:23:53;;;;;;;5.72;2.50;;;13.80;71.50;;;;;;5093398;28;20055;-69
2021/05/05 04:26:19;;;;;;;9.63;2.85;;;13.80;71.50;;;;;;5093502;28;20055;-68
2021/05/05 04:28:45;;;;;;;11.15;2.83;;;13.80;71.40;;;;;;5093497;28;20403;-68
2021/05/05 04:31:10;;;;;;;12.50;2.53;;;13.80;71.30;;;;;;5093378;28;20028;-69
2021/05/05 04:33:36;;;;;;;11.60;2.63;;;13.80;71.20;;;;;;5093463;28;20055;-68
2021/05/05 04:36:02;;;;;;;10.48;2.90;;;13.80;71.30;;;;;;5093325;28;20059;-68
2021/05/05 04:38:27;;;;;;;11.95;2.83;;;13.80;71.40;;;;;;5092719;28;20027;-69
2021/05/05 04:40:53;;;;;;;7.85;2.47;;;13.80;71.40;;;;;;5093272;28;20372;-68
2021/05/05 04:43:19;;;;;;;17.75;3.10;;;13.80;71.60;;;;;;5093129;28;20143;-68
2021/05/05 04:45:44;;;;;;;8.93;2.83;;;13.80;71.70;;;;;;5093195;28;20480;-68
2021/05/05 04:48:11;;;;;;;11.75;3.22;;;13.80;71.60;;;;;;5093184;28;20108;-68
2021/05/05 04:50:36;;;;;;;8.63;2.75;;;13.80;71.60;;;;;;5093238;28;20031;-68
2021/05/05 04:53:02;;;;;;;10.38;2.65;;;13.80;71.60;;;;;;5093223;28;20020;-68
2021/05/05 04:55:28;;;;;;;20.08;3.50;;;13.90;71.70;;;;;;5093301;28;20024;-68
2021/05/05 04:57:54;;;;;;;9.93;3.10;;;13.90;71.70;;;;;;5093636;28;20090;-67
2021/05/05 05:00:20;;;;;;;8.55;2.95;;;13.90;71.40;;;;;;5093120;28;20557;-68
2021/05/05 05:02:45;;;;;;;6.40;2.72;;;13.90;71.60;;;;;;5093303;28;20055;-68
2021/05/05 05:05:11;;;;;;;13.98;3.28;;;13.90;71.50;;;;;;5093028;28;20047;-68
2021/05/05 05:07:37;;;;;;;9.05;2.30;;;14.00;71.30;;;;;;5091689;28;20047;-68
2021/05/05 05:10:05;;;;;;;8.80;2.45;;;14.00;71.10;;;;;;5092019;28;20028;-68
2021/05/05 05:12:30;;;;;;;18.70;3.28;;;14.00;71.20;;;;;;5092697;28;20081;-68
2021/05/05 05:14:56;;;;;;;11.40;2.65;;;14.00;71.20;;;;;;5093094;28;20128;-68
2021/05/05 05:17:22;;;;;;;13.55;2.83;;;14.00;71.30;;;;;;5093419;28;20024;-68
2021/05/05 05:19:48;;;;;;;13.88;2.58;;;14.10;71.30;;;;;;5092975;28;20024;-68
2021/05/05 05:22:14;;;;;;;15.75;2.88;;;14.10;71.20;;;;;;5093021;28;20031;-68
2021/05/05 05:24:40;;;;;;;6.88;2.60;;;14.10;71.10;;;;;;5093279;28;20085;-68
2021/05/05 05:27:06;;;;;;;8.20;2.42;;;14.10;71.00;;;;;;5093004;28;20557;-68
2021/05/05 05:29:31;;;;;;;10.40;2.92;;;14.10;70.90;;;;;;5092724;28;20373;-68
2021/05/05 05:31:57;;;;;;;6.65;2.75;;;14.20;70.70;;;;;;5093142;28;20020;-68
2021/05/05 05:34:23;;;;;;;11.55;2.78;;;14.20;70.80;;;;;;5092892;28;20031;-68
2021/05/05 05:36:48;;;;;;;14.20;2.80;;;14.20;71.00;;;;;;5092964;28;20073;-68
2021/05/05 05:39:14;;;;;;;10.32;2.65;;;14.20;71.20;;;;;;5092593;28;20019;-68
2021/05/05 05:41:40;;;;;;;9.63;2.78;;;14.30;71.30;;;;;;5092718;28;20024;-68
2021/05/05 05:44:06;;;;;;;11.40;2.53;;;14.30;70.80;;;;;;5092925;28;20039;-69
2021/05/05 05:46:32;;;;;;;8.63;2.50;;;14.30;70.50;;;;;;5092912;28;20021;-68
2021/05/05 05:48:58;;;;;;;14.13;2.72;;;14.40;70.40;;;;;;5092770;28;20040;-68
2021/05/05 05:51:23;;;;;;;7.45;2.10;;;14.40;70.30;;;;;;5096740;28;20101;-68
2021/05/05 05:53:49;;;;;;;10.32;2.60;;;14.50;70.20;;;;;;5096838;28;20027;-68
2021/05/05 05:56:15;;;;;;;12.70;3.00;;;14.50;69.90;;;;;;5096550;28;20016;-68
2021/05/05 05:58:41;;;;;;;11.35;2.47;;;14.60;70.00;;;;;;5096610;28;20372;-68
2021/05/05 06:01:07;;;;;;;8.00;2.70;;;14.70;69.70;;;;;;5096535;28;20472;-68
2021/05/05 06:03:32;;;;;;;10.80;2.50;;;14.80;69.60;;;;;;5096341;28;20039;-68
2021/05/05 06:05:58;;;;;;;8.18;2.55;;;14.80;69.30;;;;;;5096204;28;20389;-68
2021/05/05 06:08:24;;;;;;;9.57;2.60;;;14.90;69.20;;;;;;5095902;28;21026;-68
2021/05/05 06:10:50;;;;;;;6.50;2.10;;;14.90;68.80;;;;;;5096086;28;20108;-68
2021/05/05 06:13:16;;;;;;;11.07;2.42;;;15.00;68.80;;;;;;5096035;28;20035;-69
2021/05/05 06:15:42;;;;;;;12.00;2.35;;;15.10;68.40;;;;;;5095217;28;20412;-69
2021/05/05 06:18:08;;;;;;;12.13;2.22;;;15.00;68.60;;;;;;5094934;28;20024;-69
2021/05/05 06:20:34;;;;;;;13.05;2.45;;;15.10;68.50;;;;;;5094659;28;20039;-69
2021/05/05 06:23:00;;;;;;;12.90;2.42;;;15.20;68.10;;;;;;5095777;28;20059;-68
2021/05/05 06:25:26;;;;;;;12.18;2.75;;;15.20;68.10;;;;;;5094606;28;20066;-69
2021/05/05 06:27:52;;;;;;;7.30;2.72;;;15.20;68.30;;;;;;5093844;28;20502;-69
2021/05/05 06:30:19;;;;;;;10.75;2.75;;;15.30;68.10;;;;;;5095840;28;20020;-68
2021/05/05 06:32:45;;;;;;;10.93;3.13;;;15.30;68.20;;;;;;5095736;28;20028;-69
2021/05/05 06:35:12;;;;;;;11.00;2.90;;;15.40;68.80;;;;;;5096114;28;20441;-69
2021/05/05 06:37:38;;;;;;;8.70;3.10;;;15.40;68.60;;;;;;5095692;28;20016;-69
2021/05/05 06:40:05;;;;;;;9.57;2.60;;;15.40;68.40;;;;;;5096017;28;20414;-69
2021/05/05 06:42:31;;;;;;;10.32;3.05;;;15.40;68.70;;;;;;5095931;28;20024;-69
2021/05/05 06:44:57;;;;;;;13.35;3.50;;;15.40;68.90;;;;;;5095732;28;20035;-69
2021/05/05 06:47:23;;;;;;;12.18;3.10;;;15.50;69.00;;;;;;5095757;28;20028;-69
2021/05/05 06:49:49;;;;;;;8.82;3.40;;;15.50;69.20;;;;;;5095336;28;20032;-70
2021/05/05 06:52:15;;;;;;;11.82;4.00;;;15.50;69.50;;;;;;5095759;28;20031;-68
2021/05/05 06:54:41;;;;;;;14.70;4.22;;;15.50;69.40;;;;;;5095349;28;20028;-68
2021/05/05 06:57:07;;;;;;;10.27;4.35;;;15.50;68.90;;;;;;5094348;28;20031;-70
2021/05/05 06:59:33;;;;;;;14.13;4.85;;;15.50;68.20;;;;;;5093445;28;20070;-67
2021/05/05 07:01:59;;;;;;;12.23;4.47;;;15.50;68.40;;;;;;5094967;28;20468;-67
2021/05/05 07:04:25;;;;;;;11.48;4.22;;;15.50;68.80;;;;;;5095111;28;20038;-67
2021/05/05 07:06:51;;;;;;;10.35;4.53;;;15.60;69.70;;;;;;5095443;28;20040;-67
2021/05/05 07:09:16;;;;;;;8.35;4.68;;;15.50;69.30;;;;;;5095692;28;20115;-67
2021/05/05 07:11:42;;;;;;;12.73;5.22;;;15.50;68.50;;;;;;5095134;28;20008;-67
2021/05/05 07:14:08;;;;;;;16.85;5.20;;;15.50;68.40;;;;;;5095285;28;20028;-67
2021/05/05 07:16:34;;;;;;;9.90;4.82;;;15.50;68.50;;;;;;5094776;28;20022;-70
2021/05/05 07:19:02;;;;;;;14.35;5.65;;;15.50;68.00;;;;;;5095352;28;20048;-69
2021/05/05 07:21:28;;;;;;;16.80;5.63;;;15.50;68.10;;;;;;5095497;28;20049;-68
2021/05/05 07:23:56;;;;;;;10.85;5.70;;;15.40;67.90;;;;;;5095529;28;20021;-67
2021/05/05 07:26:23;;;;;;;22.00;6.50;;;15.40;68.50;;;;;;5095140;28;20024;-66
2021/05/05 07:28:48;;;;;;;16.35;6.57;;;15.30;69.00;;;;;;5094848;28;20028;-67
2021/05/05 07:31:16;;;;;;;16.50;6.75;;;15.40;68.30;;;;;;5094254;28;20016;-67
2021/05/05 07:33:41;;;;;;;16.10;6.72;;;15.30;69.00;;;;;;5093519;28;20384;-67
2021/05/05 07:36:14;;;;;;;14.40;6.13;;;15.30;69.50;;;;;;5093150;28;20023;-67
2021/05/05 07:46:47;;;;;;;19.50;8.75;;;15.40;70.30;;;;;;5094775;28;20452;-67
2021/05/05 07:49:16;;;;;;;18.85;9.35;;;15.40;68.80;;;;;;5094559;28;20543;-68
2021/05/05 07:51:43;;;;;;;15.68;10.30;;;15.40;69.80;;;;;;5094395;28;20024;-67
2021/05/05 07:54:09;;;;;;;17.88;11.50;;;15.60;70.70;;;;;;5094012;28;20472;-67
2021/05/05 07:56:35;;;;;;;20.63;11.18;;;15.60;70.20;;;;;;5093834;28;20052;-67
2021/05/05 07:59:02;;;;;;;19.02;12.48;;;15.80;71.10;;;;;;5094590;28;20020;-68
2021/05/05 08:01:29;;;;;;;23.70;14.43;;;15.80;71.40;;;;;;5094217;28;20472;-67
2021/05/05 08:03:55;;;;;;;24.77;15.68;;;15.90;70.80;;;;;;5094001;28;20031;-67
2021/05/05 08:06:21;;;;;;;30.30;15.70;;;16.00;70.70;;;;;;5093694;28;20032;-67
2021/05/05 08:08:46;;;;;;;27.33;14.57;;;16.10;70.40;;;;;;5094026;28;20042;-68
2021/05/05 08:11:12;;;;;;;20.77;13.43;;;16.10;69.80;;;;;;5093931;28;20031;-67
2021/05/05 08:13:39;;;;;;;20.02;11.90;;;16.20;70.70;;;;;;5093237;28;20431;-67
2021/05/05 08:16:06;;;;;;;17.98;11.27;;;16.20;71.20;;;;;;5093841;28;20388;-68
2021/05/05 08:18:32;;;;;;;15.95;11.63;;;16.40;70.60;;;;;;5093159;28;20054;-67
2021/05/05 08:21:01;;;;;;;22.70;10.75;;;16.50;68.80;;;;;;5093357;28;20035;-67
2021/05/05 08:23:27;;;;;;;16.67;9.98;;;16.50;68.90;;;;;;5093698;28;20034;-67
2021/05/05 08:25:53;;;;;;;19.92;9.63;;;16.60;67.00;;;;;;5092595;28;20373;-68
2021/05/05 08:28:18;;;;;;;20.40;11.18;;;16.60;67.00;;;;;;5093082;28;20039;-67
2021/05/05 08:30:44;;;;;;;17.50;10.27;;;16.60;65.90;;;;;;5092928;28;20024;-66
2021/05/05 08:33:10;;;;;;;14.27;9.73;;;16.70;66.30;;;;;;5091165;28;20085;-67
2021/05/05 08:35:37;;;;;;;18.42;9.50;;;16.80;65.20;;;;;;5092851;28;20027;-67
2021/05/05 08:38:03;;;;;;;17.35;9.15;;;16.80;65.60;;;;;;5092493;28;20102;-67
2021/05/05 08:40:30;;;;;;;17.65;9.35;;;16.90;64.60;;;;;;5093497;28;20032;-67
2021/05/05 08:42:56;;;;;;;17.63;8.85;;;17.00;63.70;;;;;;5093286;28;20027;-67
2021/05/05 08:45:25;;;;;;;16.75;8.13;;;17.00;63.10;;;;;;5093561;28;20020;-68
2021/05/05 08:47:53;;;;;;;15.43;8.13;;;17.10;64.20;;;;;;5093349;28;20046;-66
2021/05/05 08:50:21;;;;;;;16.33;7.97;;;17.10;62.20;;;;;;5093428;28;20104;-67
2021/05/05 08:52:47;;;;;;;11.73;7.65;;;17.10;59.60;;;;;;5093425;28;20455;-66
2021/05/05 08:55:16;;;;;;;15.07;7.40;;;17.20;60.40;;;;;;5093174;28;20460;-67
2021/05/05 08:57:41;;;;;;;12.85;8.18;;;17.10;60.40;;;;;;5093036;28;20047;-67
2021/05/05 09:00:11;;;;;;;14.57;7.30;;;17.00;61.50;;;;;;5093293;28;20465;-67
2021/05/05 09:02:37;;;;;;;14.85;7.75;;;16.90;61.80;;;;;;5093120;28;20046;-66
2021/05/05 09:05:09;;;;;;;16.52;8.63;;;16.80;62.10;;;;;;5093254;28;20020;-67
2021/05/05 09:07:37;;;;;;;19.15;7.90;;;16.80;62.30;;;;;;5092864;28;20052;-69
2021/05/05 09:10:08;;;;;;;13.95;8.55;;;16.90;62.70;;;;;;5113717;28;20049;-70
2021/05/05 09:12:36;;;;;;;21.40;8.25;;;17.10;63.00;;;;;;5114595;28;20379;-68
2021/05/05 09:15:17;;;;;;;12.93;7.25;;;17.20;63.50;;;;;;5122917;28;20050;-70
2021/05/05 09:17:48;;;;;;;9.30;7.15;;;17.30;60.10;;;;;;5118982;28;20367;-70
2021/05/05 09:20:17;;;;;;;15.02;6.85;;;17.30;60.60;;;;;;5122093;28;20063;-68
2021/05/05 09:22:46;;;;;;;15.27;7.35;;;17.40;60.20;;;;;;5130482;28;20050;-69
2021/05/05 09:25:15;;;;;;;16.55;7.72;;;17.30;61.20;;;;;;5137972;27;20032;-67
2021/05/05 09:27:42;;;;;;;18.02;7.00;;;17.30;61.60;;;;;;5137979;27;20039;-68
2021/05/05 09:30:21;;;;;;;18.70;7.50;;;17.30;62.30;;;;;;5136548;27;20023;-68
2021/05/05 09:32:50;;;;;;;12.50;6.95;;;17.30;62.70;;;;;;5137719;27;20019;-68
2021/05/05 09:35:16;;;;;;;14.98;6.78;;;17.30;61.50;;;;;;5137833;27;20475;-68
2021/05/05 09:37:53;;;;;;;10.98;5.85;;;17.20;61.60;;;;;;5137544;27;20039;-67
2021/05/05 09:40:19;;;;;;;14.07;5.68;;;17.20;60.20;;;;;;5137936;27;20030;-67
2021/05/05 09:42:45;;;;;;;17.60;5.55;;;17.10;60.00;;;;;;5137958;27;20020;-67
2021/05/05 09:45:12;;;;;;;11.57;5.43;;;17.10;59.90;;;;;;5137563;27;20094;-67
2021/05/05 09:47:58;;;;;;;12.20;5.13;;;17.10;59.10;;;;;;5137509;27;20042;-68
2021/05/05 09:50:33;;;;;;;14.75;5.32;;;17.10;59.00;;;;;;5137830;27;20029;-67
2021/05/05 09:53:17;;;;;;;10.45;4.25;;;17.20;59.60;;;;;;5137281;27;20027;-67
2021/05/05 09:55:45;;;;;;;11.05;4.60;;;17.20;59.10;;;;;;5137541;27;20031;-68
2021/05/05 09:58:29;;;;;;;9.93;4.05;;;17.30;59.40;;;;;;5137657;27;20385;-67
2021/05/05 10:01:04;;;;;;;11.60;4.30;;;17.40;60.90;;;;;;5136462;27;20019;-69
2021/05/05 10:03:38;;;;;;;10.57;3.58;;;17.50;59.20;;;;;;5134555;27;20059;-70
2021/05/05 10:06:33;;;;;;;8.18;3.97;;;17.60;60.40;;;;;;5134172;27;20616;-70
2021/05/05 10:09:04;;;;;;;7.53;3.60;;;17.70;59.70;;;;;;5136679;27;20486;-68
2021/05/05 10:11:43;;;;;;;10.18;3.80;;;17.80;58.90;;;;;;5136896;27;20055;-68
2021/05/05 10:14:15;;;;;;;9.32;3.00;;;17.90;58.80;;;;;;5134612;27;20534;-67
2021/05/05 10:16:47;;;;;;;8.43;3.50;;;18.00;58.50;;;;;;5133954;27;20040;-70
2021/05/05 10:19:28;;;;;;;9.75;3.80;;;18.10;58.10;;;;;;5135489;27;20073;-68
2021/05/05 10:21:56;;;;;;;9.48;2.90;;;18.20;58.70;;;;;;5137418;27;20430;-70
2021/05/05 10:24:23;;;;;;;7.72;3.35;;;18.30;58.40;;;;;;5137086;27;20111;-68
2021/05/05 10:26:50;;;;;;;12.82;3.53;;;18.40;59.40;;;;;;5135723;27;20015;-70
2021/05/05 10:29:17;;;;;;;9.52;3.22;;;18.60;57.30;;;;;;5137151;27;20027;-71
2021/05/05 10:31:49;;;;;;;8.73;3.00;;;18.60;56.50;;;;;;5136678;27;20051;-68
2021/05/05 10:34:21;;;;;;;11.18;3.00;;;18.60;55.70;;;;;;5135728;27;20367;-70
2021/05/05 10:36:51;;;;;;;12.05;2.97;;;18.50;55.60;;;;;;5134338;27;20094;-69
2021/05/05 10:39:17;;;;;;;8.77;2.75;;;18.30;56.00;;;;;;5136236;27;20471;-69
2021/05/05 10:42:04;;;;;;;7.80;2.53;;;18.20;57.60;;;;;;5134927;27;20053;-69
2021/05/05 10:44:51;;;;;;;7.68;2.58;;;18.20;56.60;;;;;;5125323;27;20053;-67
2021/05/05 10:47:31;;;;;;;10.05;2.60;;;18.10;56.40;;;;;;5136544;27;20467;-68
2021/05/05 10:50:06;;;;;;;5.45;2.42;;;18.00;56.30;;;;;;5136602;27;20092;-70
2021/05/05 10:52:35;;;;;;;7.60;2.63;;;17.90;56.70;;;;;;5136198;27;20019;-69
2021/05/05 10:55:03;;;;;;;7.57;2.53;;;17.80;56.80;;;;;;5136214;27;20042;-68
2021/05/05 10:57:29;;;;;;;6.10;2.60;;;17.80;56.40;;;;;;5135996;27;20033;-68
2021/05/05 10:59:58;;;;;;;7.38;2.63;;;17.70;56.70;;;;;;5136598;27;20098;-69
2021/05/05 11:02:53;;;;;;;6.45;2.25;;;17.60;57.60;;;;;;5136223;27;20024;-70
2021/05/05 11:05:28;;;;;;;6.55;2.40;;;17.50;58.20;;;;;;5134193;27;20019;-67
2021/05/05 11:07:59;;;;;;;7.65;2.58;;;17.50;58.30;;;;;;5135805;27;20050;-68
2021/05/05 11:10:31;;;;;;;5.55;2.22;;;17.50;58.70;;;;;;5136090;27;20019;-68
2021/05/05 11:13:21;;;;;;;6.07;2.53;;;17.50;58.60;;;;;;5136502;27;20058;-68
2021/05/05 11:15:47;;;;;;;4.70;2.17;;;17.50;56.70;;;;;;5127003;27;20027;-68
2021/05/05 11:18:25;;;;;;;6.95;2.55;;;17.50;56.90;;;;;;5136058;27;20030;-68
2021/05/05 11:20:59;;;;;;;6.07;2.10;;;17.50;57.30;;;;;;5135839;27;20455;-68
2021/05/05 11:23:34;;;;;;;5.97;2.20;;;17.40;59.00;;;;;;5135854;27;20041;-68
2021/05/05 11:26:19;;;;;;;5.63;2.20;;;17.40;56.20;;;;;;5135710;27;20019;-68
2021/05/05 11:29:11;;;;;;;7.75;2.00;;;17.40;56.50;;;;;;5135720;27;20114;-69
2021/05/05 11:31:46;;;;;;;4.47;1.98;;;17.40;58.00;;;;;;5135760;27;20019;-67
2021/05/05 11:34:23;;;;;;;8.85;2.40;;;17.40;58.80;;;;;;5135634;27;20387;-68
2021/05/05 11:36:55;;;;;;;9.52;2.38;;;17.40;58.80;;;;;;5135500;27;20463;-67
2021/05/05 11:39:22;;;;;;;6.70;2.28;;;17.30;58.20;;;;;;5135339;27;20395;-67
2021/05/05 11:41:54;;;;;;;6.28;2.58;;;17.30;58.20;;;;;;5135429;27;20019;-67
2021/05/05 11:44:34;;;;;;;;;;;17.20;58.90;;;;;;5135807;27;20031;-68
2021/05/05 11:47:01;;;;;;;8.77;2.28;;;17.20;58.00;;;;;;5133930;27;20416;-66
2021/05/05 11:49:34;;;;;;;5.35;2.22;;;17.20;58.00;;;;;;5135150;27;20088;-67
2021/05/05 11:52:18;;;;;;;6.70;2.05;;;17.10;58.60;;;;;;5134918;27;20028;-67
2021/05/05 11:54:44;;;;;;;10.70;2.60;;;17.10;58.80;;;;;;5133055;27;20249;-66
2021/05/05 11:57:10;;;;;;;10.40;2.50;;;17.10;59.50;;;;;;5134345;27;20114;-67
2021/05/05 11:59:35;;;;;;;9.70;2.42;;;17.00;59.20;;;;;;5134348;27;20019;-68
2021/05/05 12:02:05;;;;;;;6.65;2.38;;;17.00;59.80;;;;;;5135161;27;20467;-69
2021/05/05 12:04:40;;;;;;;8.98;2.35;;;16.90;59.20;;;;;;5134532;27;20026;-69
2021/05/05 12:07:13;;;;;;;8.57;2.13;;;16.90;59.80;;;;;;5133119;27;20428;-70
2021/05/05 12:09:42;;;;;;;8.15;2.22;;;16.90;60.00;;;;;;5134855;27;20045;-70
2021/05/05 12:12:37;;;;;;;10.90;2.78;;;16.90;60.20;;;;;;5134500;27;20027;-70
2021/05/05 12:15:06;;;;;;;8.90;2.40;;;16.80;60.40;;;;;;5131751;27;20506;-69
2021/05/05 12:17:40;;;;;;;9.57;3.20;;;16.80;61.20;;;;;;5134769;27;20471;-69
2021/05/05 12:20:08;;;;;;;6.88;2.33;;;16.80;60.20;;;;;;5134675;27;20031;-69
2021/05/05 12:22:35;;;;;;;9.70;3.30;;;16.80;60.10;;;;;;5133949;27;20023;-69
2021/05/05 12:25:12;;;;;;;5.60;2.50;;;16.80;60.70;;;;;;5133258;27;20023;-69
2021/05/05 12:27:55;;;;;;;6.32;2.35;;;16.80;59.70;;;;;;5134759;27;20031;-68
2021/05/05 12:30:20;;;;;;;6.70;2.13;;;16.70;60.40;;;;;;5134636;27;20070;-69
2021/05/05 12:32:48;;;;;;;10.30;2.45;;;16.70;60.70;;;;;;5134300;27;20022;-68
2021/05/05 12:35:25;;;;;;;7.40;2.22;;;16.70;60.80;;;;;;5134234;27;20058;-69
2021/05/05 12:37:51;;;;;;;7.20;2.53;;;16.70;59.60;;;;;;5134267;27;20027;-67
2021/05/05 12:40:22;;;;;;;8.18;2.65;;;16.70;59.70;;;;;;5134018;27;20023;-68
2021/05/05 12:42:47;;;;;;;7.88;2.25;;;16.70;59.70;;;;;;5134048;27;20482;-69
2021/05/05 12:45:16;;;;;;;5.85;1.80;;;16.70;59.90;;;;;;5133917;27;20029;-68
2021/05/05 12:47:42;;;;;;;10.95;2.20;;;16.70;60.30;;;;;;5134031;27;20087;-67
2021/05/05 12:50:10;;;;;;;7.25;2.38;;;16.80;60.60;;;;;;5133948;27;20015;-67
2021/05/05 12:52:38;;;;;;;7.82;1.92;;;16.70;60.10;;;;;;5133985;27;20016;-68